East Orange, New Jersey
Current Conditions -  °F | °C
As of 7:51 PM on Friday 26 Dec 2014 (Local Time) from KEWR Reporting Station
Scattered Clouds Scattered Clouds  
Wind Chill: 38°   Ceiling: Unl
Heat Index: 43°   Visibility: 10mi
Dew Point: 30°   Wind: 8mph
Humidity: 60%   Direction: 240°WSW
Pressure: 30.23"   Gusts: NA
Location:  40.76°N, 74.21°W
Report Text: KEWR 270051Z 24007KT 10SM SCT250 06/M01 A3023 RMK AO2 SLP237 T00611011
Loading
Personal Weather Stations






























Interactive Weather Map New forecast layout! Learn more

10-Day Weather Forecast

Advertisements
Track Severe Weather on mobile